createdAt,value
2018-07-03T00:00:17.578Z,1002.4
2018-07-03T00:01:18.942Z,1002.4
2018-07-03T00:02:20.322Z,1002.3
2018-07-03T00:03:21.692Z,1002.3
2018-07-03T00:04:23.059Z,1002.3
2018-07-03T00:05:24.426Z,1002.3
2018-07-03T00:06:25.784Z,1002.4
2018-07-03T00:07:27.148Z,1002.3
2018-07-03T00:08:28.517Z,1002.3
2018-07-03T00:09:29.871Z,1002.4
2018-07-03T00:10:31.227Z,1002.3
2018-07-03T00:11:32.594Z,1002.4
2018-07-03T00:12:33.962Z,1002.4
2018-07-03T00:13:35.323Z,1002.4
2018-07-03T00:14:36.695Z,1002.4
2018-07-03T00:15:38.051Z,1002.4
2018-07-03T00:16:39.416Z,1002.5
2018-07-03T00:17:40.787Z,1002.4
2018-07-03T00:18:42.147Z,1002.4
2018-07-03T00:19:43.506Z,1002.3
2018-07-03T00:20:44.861Z,1002.3
2018-07-03T00:21:46.228Z,1002.3
2018-07-03T00:22:47.587Z,1002.4
2018-07-03T00:23:48.973Z,1002.4
2018-07-03T00:24:50.346Z,1002.4
2018-07-03T00:25:51.716Z,1002.4
2018-07-03T00:26:53.081Z,1002.4
2018-07-03T00:27:54.442Z,1002.4
2018-07-03T00:28:55.810Z,1002.4
2018-07-03T00:29:57.165Z,1002.4
2018-07-03T00:30:58.533Z,1002.4
2018-07-03T00:31:59.901Z,1002.3
2018-07-03T00:33:01.262Z,1002.4
2018-07-03T00:34:02.623Z,1002.4
2018-07-03T00:35:03.993Z,1002.4
2018-07-03T00:36:05.352Z,1002.3
2018-07-03T00:37:06.713Z,1002.3
2018-07-03T00:38:08.089Z,1002.3
2018-07-03T00:39:09.451Z,1002.3
2018-07-03T00:40:10.816Z,1002.3
2018-07-03T00:41:12.171Z,1002.3
2018-07-03T00:42:13.534Z,1002.3
2018-07-03T00:43:14.896Z,1002.4
2018-07-03T00:44:16.267Z,1002.3
2018-07-03T00:45:17.626Z,1002.3
2018-07-03T00:46:18.981Z,1002.3
2018-07-03T00:47:20.356Z,1002.4
2018-07-03T00:48:21.719Z,1002.4
2018-07-03T00:49:23.091Z,1002.4
2018-07-03T00:50:24.448Z,1002.4
2018-07-03T00:51:25.821Z,1002.4
2018-07-03T00:52:27.176Z,1002.4
2018-07-03T00:53:28.547Z,1002.5
2018-07-03T00:54:29.913Z,1002.5
2018-07-03T00:55:31.279Z,1002.4
2018-07-03T00:56:32.631Z,1002.4
2018-07-03T00:57:34.008Z,1002.4
2018-07-03T00:58:35.366Z,1002.4
2018-07-03T00:59:36.727Z,1002.4
2018-07-03T01:00:38.103Z,1002.4
2018-07-03T01:01:39.467Z,1002.4
2018-07-03T01:02:40.837Z,1002.4
2018-07-03T01:03:42.196Z,1002.5
2018-07-03T01:04:44.212Z,1002.5
2018-07-03T01:05:44.906Z,1002.6
2018-07-03T01:06:46.262Z,1002.5
2018-07-03T01:07:47.631Z,1002.5
2018-07-03T01:08:49.002Z,1002.5
2018-07-03T01:09:50.352Z,1002.5
2018-07-03T01:10:51.716Z,1002.5
2018-07-03T01:11:53.086Z,1002.5
2018-07-03T01:12:54.447Z,1002.5
2018-07-03T01:13:55.802Z,1002.5
2018-07-03T01:14:57.173Z,1002.5
2018-07-03T01:15:58.543Z,1002.4
2018-07-03T01:16:59.904Z,1002.4
2018-07-03T01:18:01.266Z,1002.4
2018-07-03T01:19:02.631Z,1002.4
2018-07-03T01:20:03.992Z,1002.3
2018-07-03T01:21:05.364Z,1002.4
2018-07-03T01:22:06.727Z,1002.4
2018-07-03T01:23:08.090Z,1002.4
2018-07-03T01:24:09.453Z,1002.4
2018-07-03T01:25:10.811Z,1002.4
2018-07-03T01:26:12.172Z,1002.4
2018-07-03T01:27:14.364Z,1002.4
2018-07-03T01:28:15.734Z,1002.4
2018-07-03T01:29:17.091Z,1002.4
2018-07-03T01:30:18.453Z,1002.4
2018-07-03T01:31:19.807Z,1002.4
2018-07-03T01:32:21.171Z,1002.5
2018-07-03T01:33:22.548Z,1002.4
2018-07-03T01:34:23.911Z,1002.4
2018-07-03T01:35:25.271Z,1002.4
2018-07-03T01:36:26.631Z,1002.4
2018-07-03T01:37:27.988Z,1002.4
2018-07-03T01:38:29.378Z,1002.5
2018-07-03T01:39:30.762Z,1002.5
2018-07-03T01:40:32.122Z,1002.4
2018-07-03T01:41:33.482Z,1002.4
2018-07-03T01:42:34.844Z,1002.4
2018-07-03T01:43:36.218Z,1002.4
2018-07-03T01:44:37.577Z,1002.4
2018-07-03T01:45:38.932Z,1002.4
2018-07-03T01:46:40.307Z,1002.5
2018-07-03T01:47:41.873Z,1002.5
2018-07-03T01:48:43.231Z,1002.5
2018-07-03T01:49:44.589Z,1002.5
2018-07-03T01:50:45.967Z,1002.5
2018-07-03T01:51:47.326Z,1002.5
2018-07-03T01:52:48.682Z,1002.5
2018-07-03T01:53:50.046Z,1002.5
2018-07-03T01:54:51.421Z,1002.5
2018-07-03T01:55:52.773Z,1002.5
2018-07-03T01:56:54.188Z,1002.5
2018-07-03T01:57:55.497Z,1002.5
2018-07-03T01:58:56.863Z,1002.5
2018-07-03T01:59:58.217Z,1002.5
2018-07-03T02:00:59.584Z,1002.5
2018-07-03T02:02:00.953Z,1002.5
2018-07-03T02:03:02.316Z,1002.5
2018-07-03T02:04:03.672Z,1002.5
2018-07-03T02:05:05.037Z,1002.5
2018-07-03T02:06:06.403Z,1002.5
2018-07-03T02:07:07.769Z,1002.5
2018-07-03T02:08:09.136Z,1002.4
2018-07-03T02:09:10.496Z,1002.5
2018-07-03T02:10:11.853Z,1002.4
2018-07-03T02:11:13.216Z,1002.4
2018-07-03T02:12:14.615Z,1002.4
2018-07-03T02:13:15.978Z,1002.4
2018-07-03T02:14:17.339Z,1002.4
2018-07-03T02:15:18.704Z,1002.4
2018-07-03T02:16:20.066Z,1002.4
2018-07-03T02:17:21.416Z,1002.4
2018-07-03T02:18:22.787Z,1002.4
2018-07-03T02:19:24.147Z,1002.4
2018-07-03T02:20:25.513Z,1002.3
2018-07-03T02:21:26.873Z,1002.4
2018-07-03T02:22:28.228Z,1002.3
2018-07-03T02:23:29.597Z,1002.3
2018-07-03T02:24:30.949Z,1002.3
2018-07-03T02:25:32.309Z,1002.3
2018-07-03T02:26:33.671Z,1002.3
2018-07-03T02:27:35.046Z,1002.3
2018-07-03T02:28:36.401Z,1002.3
2018-07-03T02:29:37.756Z,1002.3
2018-07-03T02:30:39.132Z,1002.3
2018-07-03T02:31:40.492Z,1002.3
2018-07-03T02:32:41.854Z,1002.3
2018-07-03T02:33:43.219Z,1002.3
2018-07-03T02:34:44.633Z,1002.2
2018-07-03T02:35:45.989Z,1002.2
2018-07-03T02:36:47.357Z,1002.3
2018-07-03T02:37:48.713Z,1002.3
2018-07-03T02:38:50.077Z,1002.4
2018-07-03T02:39:51.427Z,1002.3
2018-07-03T02:40:52.794Z,1002.3
2018-07-03T02:41:54.163Z,1002.3
2018-07-03T02:42:55.526Z,1002.3
2018-07-03T02:43:56.878Z,1002.4
2018-07-03T02:44:58.242Z,1002.3
2018-07-03T02:45:59.604Z,1002.4
2018-07-03T02:47:00.982Z,1002.3
2018-07-03T02:48:02.329Z,1002.3
2018-07-03T02:49:03.700Z,1002.3
2018-07-03T02:50:05.079Z,1002.3
2018-07-03T02:51:06.440Z,1002.3
2018-07-03T02:52:07.794Z,1002.3
2018-07-03T02:53:09.172Z,1002.3
2018-07-03T02:54:10.537Z,1002.2
2018-07-03T02:55:11.912Z,1002.2
2018-07-03T02:56:13.293Z,1002.3
2018-07-03T02:57:14.632Z,1002.3
2018-07-03T02:58:16.004Z,1002.3
2018-07-03T02:59:17.357Z,1002.3
2018-07-03T03:00:18.732Z,1002.3
2018-07-03T03:01:20.084Z,1002.4
2018-07-03T03:02:21.457Z,1002.3
2018-07-03T03:03:22.819Z,1002.3
2018-07-03T03:04:24.187Z,1002.4
2018-07-03T03:05:25.554Z,1002.3
2018-07-03T03:06:26.922Z,1002.3
2018-07-03T03:07:28.290Z,1002.3
2018-07-03T03:08:29.649Z,1002.3
2018-07-03T03:09:31.009Z,1002.3
2018-07-03T03:10:32.374Z,1002.3
2018-07-03T03:11:33.731Z,1002.4
2018-07-03T03:12:35.088Z,1002.4
2018-07-03T03:13:36.453Z,1002.3
2018-07-03T03:14:37.819Z,1002.4
2018-07-03T03:15:39.192Z,1002.5
2018-07-03T03:16:40.567Z,1002.4
2018-07-03T03:17:42.067Z,1002.4
2018-07-03T03:18:43.430Z,1002.3
2018-07-03T03:19:44.798Z,1002.4
2018-07-03T03:20:46.243Z,1002.4
2018-07-03T03:21:47.648Z,1002.4
2018-07-03T03:22:49.023Z,1002.4
2018-07-03T03:23:50.412Z,1002.4
2018-07-03T03:24:51.784Z,1002.4
2018-07-03T03:25:53.138Z,1002.4
2018-07-03T03:26:54.573Z,1002.4
2018-07-03T03:27:55.955Z,1002.4
2018-07-03T03:28:57.319Z,1002.4
2018-07-03T03:29:58.704Z,1002.5
2018-07-03T03:31:00.069Z,1002.5
2018-07-03T03:32:01.463Z,1002.5
2018-07-03T03:33:02.826Z,1002.6
2018-07-03T03:34:04.210Z,1002.5
2018-07-03T03:35:05.579Z,1002.5
2018-07-03T03:36:06.975Z,1002.5
2018-07-03T03:37:08.334Z,1002.6
2018-07-03T03:38:09.718Z,1002.5
2018-07-03T03:39:11.088Z,1002.6
2018-07-03T03:40:12.469Z,1002.6
2018-07-03T03:41:13.848Z,1002.5
2018-07-03T03:42:15.233Z,1002.6
2018-07-03T03:43:16.608Z,1002.6
2018-07-03T03:44:18.000Z,1002.6
2018-07-03T03:45:19.363Z,1002.7
2018-07-03T03:46:20.737Z,1002.6
2018-07-03T03:47:22.114Z,1002.7
2018-07-03T03:48:23.467Z,1002.6
2018-07-03T03:49:24.847Z,1002.6
2018-07-03T03:50:26.200Z,1002.7
2018-07-03T03:51:27.563Z,1002.7
2018-07-03T03:52:28.939Z,1002.8
2018-07-03T03:53:30.304Z,1002.7
2018-07-03T03:54:31.663Z,1002.7
2018-07-03T03:55:33.046Z,1002.6
2018-07-03T03:56:34.410Z,1002.7
2018-07-03T03:57:35.775Z,1002.8
2018-07-03T03:58:37.174Z,1002.7
2018-07-03T03:59:38.554Z,1002.8
2018-07-03T04:00:39.943Z,1002.8
2018-07-03T04:01:41.312Z,1002.8
2018-07-03T04:02:42.684Z,1002.8
2018-07-03T04:03:44.068Z,1002.9
2018-07-03T04:04:45.454Z,1002.9
2018-07-03T04:05:46.829Z,1002.9
2018-07-03T04:06:48.218Z,1002.9
2018-07-03T04:07:49.584Z,1002.9
2018-07-03T04:08:50.944Z,1002.9
2018-07-03T04:09:52.314Z,1002.9
2018-07-03T04:10:53.705Z,1002.9
2018-07-03T04:11:55.066Z,1002.9
2018-07-03T04:12:56.442Z,1002.9
2018-07-03T04:13:57.823Z,1002.9
2018-07-03T04:14:59.198Z,1002.9
2018-07-03T04:16:00.563Z,1002.9
2018-07-03T04:17:01.939Z,1002.9
2018-07-03T04:18:03.300Z,1003.0
2018-07-03T04:19:04.675Z,1003.0
2018-07-03T04:20:06.040Z,1002.9
2018-07-03T04:21:07.410Z,1002.9
2018-07-03T04:22:08.790Z,1002.9
2018-07-03T04:23:10.178Z,1002.9
2018-07-03T04:24:11.540Z,1002.9
2018-07-03T04:25:12.931Z,1002.9
2018-07-03T04:26:14.401Z,1002.9
2018-07-03T04:27:15.784Z,1003.0
2018-07-03T04:28:17.174Z,1003.0
2018-07-03T04:29:18.538Z,1003.0
2018-07-03T04:30:19.893Z,1003.0
2018-07-03T04:31:21.259Z,1003.0
2018-07-03T04:32:22.628Z,1003.0
2018-07-03T04:33:23.990Z,1003.1
2018-07-03T04:34:25.368Z,1003.1
2018-07-03T04:35:27.578Z,1003.1
2018-07-03T04:36:28.954Z,1003.1
2018-07-03T04:37:30.320Z,1003.1
2018-07-03T04:38:31.688Z,1003.1
2018-07-03T04:39:33.044Z,1003.1
2018-07-03T04:40:34.418Z,1003.1
2018-07-03T04:41:35.780Z,1003.1
2018-07-03T04:42:37.155Z,1003.1
2018-07-03T04:43:38.519Z,1003.0
2018-07-03T04:44:39.886Z,1003.1
2018-07-03T04:45:41.259Z,1003.0
2018-07-03T04:46:42.625Z,1003.0
2018-07-03T04:47:44.008Z,1003.0
2018-07-03T04:48:45.378Z,1002.9
2018-07-03T04:49:46.743Z,1003.0
2018-07-03T04:50:48.109Z,1003.0
2018-07-03T04:51:49.480Z,1002.9
2018-07-03T04:52:50.845Z,1003.0
2018-07-03T04:53:52.210Z,1003.0
2018-07-03T04:54:53.584Z,1003.0
2018-07-03T04:55:54.949Z,1003.0
2018-07-03T04:56:56.326Z,1003.0
2018-07-03T04:57:57.690Z,1002.9
2018-07-03T04:58:59.063Z,1002.9
2018-07-03T05:00:00.429Z,1002.9
2018-07-03T05:01:01.791Z,1002.9
2018-07-03T05:02:03.164Z,1003.0
2018-07-03T05:03:04.525Z,1002.9
2018-07-03T05:04:05.893Z,1002.9
2018-07-03T05:05:07.261Z,1003.0
2018-07-03T05:06:08.628Z,1002.9
2018-07-03T05:07:10.001Z,1002.9
2018-07-03T05:08:11.355Z,1002.9
2018-07-03T05:09:12.730Z,1002.9
2018-07-03T05:10:14.144Z,1002.9
2018-07-03T05:11:15.504Z,1002.9
2018-07-03T05:12:16.880Z,1002.9
2018-07-03T05:13:18.249Z,1002.9
2018-07-03T05:14:19.640Z,1002.9
2018-07-03T05:15:21.010Z,1003.0
2018-07-03T05:16:22.383Z,1003.0
2018-07-03T05:17:23.751Z,1002.9
2018-07-03T05:18:25.119Z,1003.0
2018-07-03T05:19:26.504Z,1003.0
2018-07-03T05:20:27.862Z,1003.0
2018-07-03T05:21:29.234Z,1003.0
2018-07-03T05:22:30.611Z,1003.0
2018-07-03T05:23:31.974Z,1003.1
2018-07-03T05:24:33.355Z,1003.0
2018-07-03T05:25:34.716Z,1003.0
2018-07-03T05:26:36.086Z,1003.0
2018-07-03T05:27:37.460Z,1003.0
2018-07-03T05:28:38.825Z,1003.0
2018-07-03T05:29:40.199Z,1003.1
2018-07-03T05:30:41.565Z,1003.1
2018-07-03T05:31:42.986Z,1003.1
2018-07-03T05:32:44.306Z,1003.1
2018-07-03T05:33:45.670Z,1003.1
2018-07-03T05:34:47.036Z,1003.2
2018-07-03T05:35:48.394Z,1003.1
2018-07-03T05:36:49.761Z,1003.1
2018-07-03T05:37:51.129Z,1003.2
2018-07-03T05:38:52.506Z,1003.2
2018-07-03T05:39:53.866Z,1003.4
2018-07-03T05:40:55.247Z,1003.6
2018-07-03T05:41:56.626Z,1003.6
2018-07-03T05:42:58.019Z,1003.7
2018-07-03T05:43:59.391Z,1003.6
2018-07-03T05:45:00.751Z,1003.6
2018-07-03T05:46:02.136Z,1003.6
2018-07-03T05:47:03.509Z,1003.6
2018-07-03T05:48:04.884Z,1003.6
2018-07-03T05:49:06.254Z,1003.6
2018-07-03T05:50:07.631Z,1003.6
2018-07-03T05:51:09.001Z,1003.5
2018-07-03T05:52:10.381Z,1003.5
2018-07-03T05:53:11.766Z,1003.6
2018-07-03T05:54:13.129Z,1003.7
2018-07-03T05:55:14.549Z,1003.7
2018-07-03T05:56:15.937Z,1003.7
2018-07-03T05:57:17.301Z,1003.6
2018-07-03T05:58:18.662Z,1003.7
2018-07-03T05:59:20.046Z,1003.8
2018-07-03T06:00:21.435Z,1003.8
2018-07-03T06:01:22.815Z,1003.8
2018-07-03T06:02:24.196Z,1003.9
2018-07-03T06:03:25.562Z,1003.8
2018-07-03T06:04:26.946Z,1003.8
2018-07-03T06:05:28.319Z,1003.8
2018-07-03T06:06:29.706Z,1003.8
2018-07-03T06:07:31.080Z,1003.9
2018-07-03T06:08:32.445Z,1003.8
2018-07-03T06:09:33.835Z,1003.9
2018-07-03T06:10:35.206Z,1003.8
2018-07-03T06:11:36.585Z,1003.9
2018-07-03T06:12:37.961Z,1003.9
2018-07-03T06:13:39.354Z,1003.8
2018-07-03T06:14:40.728Z,1003.9
2018-07-03T06:15:42.100Z,1004.0
2018-07-03T06:16:43.544Z,1004.0
2018-07-03T06:17:44.925Z,1004.0
2018-07-03T06:18:46.319Z,1004.0
2018-07-03T06:19:47.690Z,1004.0
2018-07-03T06:20:49.069Z,1004.0
2018-07-03T06:21:50.444Z,1004.0
2018-07-03T06:22:51.934Z,1004.0
2018-07-03T06:23:53.280Z,1004.0
2018-07-03T06:24:54.667Z,1004.0
2018-07-03T06:25:56.040Z,1004.0
2018-07-03T06:26:57.415Z,1004.0
2018-07-03T06:27:58.800Z,1004.1
2018-07-03T06:29:00.251Z,1004.1
2018-07-03T06:30:01.538Z,1004.1
2018-07-03T06:31:02.931Z,1004.1
2018-07-03T06:32:04.306Z,1004.1
2018-07-03T06:33:05.681Z,1004.1
2018-07-03T06:34:07.066Z,1004.1
2018-07-03T06:35:08.454Z,1004.2
2018-07-03T06:36:09.835Z,1004.2
2018-07-03T06:37:11.226Z,1004.1
2018-07-03T06:38:12.610Z,1004.0
2018-07-03T06:39:14.032Z,1004.1
2018-07-03T06:40:15.440Z,1004.2
2018-07-03T06:41:16.811Z,1004.2
2018-07-03T06:42:18.191Z,1004.2
2018-07-03T06:43:19.579Z,1004.1
2018-07-03T06:44:20.962Z,1004.3
2018-07-03T06:45:22.349Z,1004.2
2018-07-03T06:46:23.725Z,1004.3
2018-07-03T06:47:25.150Z,1004.3
2018-07-03T06:48:26.458Z,1004.3
2018-07-03T06:49:27.835Z,1004.3
2018-07-03T06:50:29.221Z,1004.3
2018-07-03T06:51:30.600Z,1004.3
2018-07-03T06:52:31.990Z,1004.3
2018-07-03T06:53:33.362Z,1004.3
2018-07-03T06:54:34.755Z,1004.4
2018-07-03T06:55:36.135Z,1004.4
2018-07-03T06:56:37.516Z,1004.4
2018-07-03T06:57:38.907Z,1004.4
2018-07-03T06:58:40.312Z,1004.4
2018-07-03T06:59:41.690Z,1004.4
2018-07-03T07:00:43.071Z,1004.4
2018-07-03T07:01:44.472Z,1004.4
2018-07-03T07:02:45.855Z,1004.4
2018-07-03T07:03:47.237Z,1004.3
2018-07-03T07:04:48.624Z,1004.5
2018-07-03T07:05:50.020Z,1004.4
2018-07-03T07:06:51.390Z,1004.4
2018-07-03T07:07:52.765Z,1004.6
2018-07-03T07:08:54.268Z,1004.5
2018-07-03T07:09:55.505Z,1004.5
2018-07-03T07:10:56.892Z,1004.5
2018-07-03T07:11:58.275Z,1004.5
2018-07-03T07:12:59.657Z,1004.6
2018-07-03T07:14:01.035Z,1004.6
2018-07-03T07:15:02.471Z,1004.4
2018-07-03T07:16:03.837Z,1004.6
2018-07-03T07:17:05.212Z,1004.6
2018-07-03T07:18:06.602Z,1004.6
2018-07-03T07:19:07.986Z,1004.6
2018-07-03T07:20:09.370Z,1004.6
2018-07-03T07:21:10.755Z,1004.5
2018-07-03T07:22:12.138Z,1004.6
2018-07-03T07:23:13.558Z,1004.6
2018-07-03T07:24:14.897Z,1004.7
2018-07-03T07:25:16.282Z,1004.8
2018-07-03T07:26:17.674Z,1004.9
2018-07-03T07:27:19.060Z,1004.8
2018-07-03T07:28:20.433Z,1004.8
2018-07-03T07:29:21.832Z,1004.8
2018-07-03T07:30:23.187Z,1004.8
2018-07-03T07:31:24.573Z,1004.8
2018-07-03T07:32:25.963Z,1004.8
2018-07-03T07:33:27.386Z,1004.8
2018-07-03T07:34:28.785Z,1004.8
2018-07-03T07:35:30.168Z,1004.8
2018-07-03T07:36:31.553Z,1004.8
2018-07-03T07:37:32.957Z,1004.8
2018-07-03T07:38:34.337Z,1004.9
2018-07-03T07:39:35.718Z,1004.9
2018-07-03T07:40:37.127Z,1004.9
2018-07-03T07:41:38.527Z,1005.0
2018-07-03T07:42:39.953Z,1005.0
2018-07-03T07:43:41.273Z,1005.0
2018-07-03T07:44:42.670Z,1005.0
2018-07-03T07:45:44.080Z,1004.9
2018-07-03T07:46:45.468Z,1005.1
2018-07-03T07:47:46.847Z,1005.1
2018-07-03T07:48:48.233Z,1005.0
2018-07-03T07:49:49.611Z,1005.1
2018-07-03T07:50:50.997Z,1005.2
2018-07-03T07:51:52.382Z,1005.2
2018-07-03T07:52:53.762Z,1005.2
2018-07-03T07:53:55.148Z,1005.2
2018-07-03T07:54:56.584Z,1005.2
2018-07-03T07:55:57.938Z,1005.2
2018-07-03T07:56:59.333Z,1005.2
2018-07-03T07:58:00.714Z,1005.1
2018-07-03T07:59:02.112Z,1005.0
2018-07-03T08:00:03.500Z,1005.1
2018-07-03T08:01:04.892Z,1005.1
2018-07-03T08:02:06.280Z,1005.3
2018-07-03T08:03:07.667Z,1005.3
2018-07-03T08:04:09.066Z,1005.3
2018-07-03T08:05:10.447Z,1005.2
2018-07-03T08:06:11.826Z,1005.3
2018-07-03T08:07:13.216Z,1005.2
2018-07-03T08:08:14.597Z,1005.3
2018-07-03T08:09:15.992Z,1005.2
2018-07-03T08:10:17.378Z,1005.5
2018-07-03T08:11:18.758Z,1005.6
2018-07-03T08:12:20.156Z,1005.6
2018-07-03T08:13:21.586Z,1005.8
2018-07-03T08:14:22.926Z,1005.9
2018-07-03T08:15:24.305Z,1005.9
2018-07-03T08:16:25.698Z,1005.8
2018-07-03T08:17:27.116Z,1005.8
2018-07-03T08:18:28.508Z,1005.6
2018-07-03T08:19:29.902Z,1005.7
2018-07-03T08:20:31.286Z,1005.7
2018-07-03T08:21:32.668Z,1005.9
2018-07-03T08:22:34.053Z,1005.8
2018-07-03T08:23:35.447Z,1005.8
2018-07-03T08:24:36.839Z,1005.9
2018-07-03T08:25:38.242Z,1005.8
2018-07-03T08:26:39.741Z,1005.8
2018-07-03T08:27:41.008Z,1005.9
2018-07-03T08:28:42.401Z,1005.8
2018-07-03T08:29:43.823Z,1005.9
2018-07-03T08:30:45.203Z,1005.9
2018-07-03T08:31:46.594Z,1005.9
2018-07-03T08:32:47.992Z,1005.9
2018-07-03T08:33:49.376Z,1005.8
2018-07-03T08:34:50.773Z,1005.8
2018-07-03T08:35:52.166Z,1005.8
2018-07-03T08:36:53.557Z,1005.8
2018-07-03T08:37:54.976Z,1005.8
2018-07-03T08:38:56.347Z,1005.6
2018-07-03T08:39:57.743Z,1005.6
2018-07-03T08:40:59.137Z,1005.8
2018-07-03T08:42:00.543Z,1005.8
2018-07-03T08:43:01.943Z,1005.8
2018-07-03T08:44:03.331Z,1005.5
2018-07-03T08:45:04.724Z,1005.6
2018-07-03T08:46:06.126Z,1005.8
2018-07-03T08:47:07.563Z,1005.9
2018-07-03T08:48:08.942Z,1005.8
2018-07-03T08:49:10.347Z,1005.9
2018-07-03T08:50:11.757Z,1005.9
2018-07-03T08:51:13.146Z,1005.9
2018-07-03T08:52:14.548Z,1005.9
2018-07-03T08:53:15.943Z,1005.9
2018-07-03T08:54:17.329Z,1005.8
2018-07-03T08:55:18.717Z,1005.9
2018-07-03T08:56:20.116Z,1006.0
2018-07-03T08:57:21.513Z,1006.1
2018-07-03T08:58:22.965Z,1006.2
2018-07-03T08:59:24.309Z,1006.0
2018-07-03T09:00:25.716Z,1006.2
2018-07-03T09:01:27.109Z,1006.2
2018-07-03T09:02:28.489Z,1006.2
2018-07-03T09:03:29.878Z,1006.4
2018-07-03T09:04:31.281Z,1006.3
2018-07-03T09:05:32.674Z,1006.4
2018-07-03T09:06:34.058Z,1006.4
2018-07-03T09:07:35.464Z,1006.5
2018-07-03T09:08:36.852Z,1006.6
2018-07-03T09:09:38.238Z,1006.7
2018-07-03T09:10:39.619Z,1006.8
2018-07-03T09:11:41.018Z,1006.7
2018-07-03T09:12:42.412Z,1006.7
2018-07-03T09:13:44.591Z,1006.7
2018-07-03T09:14:45.989Z,1006.7
2018-07-03T09:15:47.372Z,1006.8
2018-07-03T09:16:48.767Z,1006.6
2018-07-03T09:17:50.193Z,1006.6
2018-07-03T09:18:51.537Z,1006.4
2018-07-03T09:19:52.937Z,1006.4
2018-07-03T09:20:54.656Z,1006.4
2018-07-03T09:21:56.043Z,1006.1
2018-07-03T09:22:57.448Z,1006.0
2018-07-03T09:23:58.827Z,1005.9
2018-07-03T09:25:00.232Z,1005.7
2018-07-03T09:26:01.639Z,1005.7
2018-07-03T09:27:03.032Z,1005.9
2018-07-03T09:28:04.437Z,1005.7
2018-07-03T09:29:05.878Z,1005.6
2018-07-03T09:30:07.259Z,1005.7
2018-07-03T09:31:08.672Z,1005.3
2018-07-03T09:32:10.067Z,1005.2
2018-07-03T09:33:11.468Z,1005.4
2018-07-03T09:34:12.882Z,1005.5
2018-07-03T09:35:14.522Z,1005.4
2018-07-03T09:36:15.938Z,1005.1
2018-07-03T09:37:17.309Z,1005.0
2018-07-03T09:38:18.706Z,1005.0
2018-07-03T09:39:20.107Z,1005.0
2018-07-03T09:40:21.489Z,1005.1
2018-07-03T09:41:22.890Z,1005.0
2018-07-03T09:42:24.306Z,1004.9
2018-07-03T09:43:25.681Z,1004.9
2018-07-03T09:44:27.075Z,1005.0
2018-07-03T09:45:28.476Z,1004.9
2018-07-03T09:46:29.861Z,1004.9
2018-07-03T09:47:31.271Z,1004.8
2018-07-03T09:48:32.662Z,1004.8
2018-07-03T09:49:34.067Z,1004.7
2018-07-03T09:50:35.456Z,1004.7
2018-07-03T09:51:36.846Z,1004.7
2018-07-03T09:52:38.226Z,1004.8
2018-07-03T09:53:39.653Z,1004.6
2018-07-03T09:54:41.106Z,1004.5
2018-07-03T09:55:42.444Z,1004.6
2018-07-03T09:56:43.857Z,1004.7
2018-07-03T09:57:45.260Z,1004.6
2018-07-03T09:58:46.643Z,1004.5
2018-07-03T09:59:48.041Z,1004.5
2018-07-03T10:00:49.427Z,1004.5
2018-07-03T10:01:50.829Z,1004.5
2018-07-03T10:02:52.213Z,1004.5
2018-07-03T10:03:53.597Z,1004.5
2018-07-03T10:04:55.004Z,1004.6
2018-07-03T10:05:56.392Z,1004.6
2018-07-03T10:06:57.798Z,1004.5
2018-07-03T10:07:59.208Z,1004.4
2018-07-03T10:09:00.642Z,1004.3
2018-07-03T10:10:02.029Z,1004.3
2018-07-03T10:11:03.432Z,1004.5
2018-07-03T10:12:04.814Z,1004.4
2018-07-03T10:13:06.457Z,1004.4
2018-07-03T10:14:07.857Z,1004.4
2018-07-03T10:15:09.238Z,1004.3
2018-07-03T10:16:10.645Z,1004.1
2018-07-03T10:17:12.064Z,1004.3
2018-07-03T10:18:13.462Z,1004.4
2018-07-03T10:19:14.868Z,1004.4
2018-07-03T10:20:16.342Z,1004.5
2018-07-03T10:21:17.742Z,1004.4
2018-07-03T10:22:19.140Z,1004.5
2018-07-03T10:23:20.537Z,1004.4
2018-07-03T10:24:21.938Z,1004.3
2018-07-03T10:25:23.335Z,1004.3
2018-07-03T10:26:24.765Z,1004.3
2018-07-03T10:27:26.185Z,1004.3
2018-07-03T10:28:27.604Z,1004.2
2018-07-03T10:29:28.993Z,1004.3
2018-07-03T10:30:30.384Z,1004.3
2018-07-03T10:31:31.773Z,1004.0
2018-07-03T10:32:33.180Z,1004.1
2018-07-03T10:33:34.573Z,1004.1
2018-07-03T10:34:35.973Z,1004.1
2018-07-03T10:35:37.358Z,1004.1
2018-07-03T10:36:38.757Z,1004.2
2018-07-03T10:37:40.152Z,1004.2
2018-07-03T10:38:41.545Z,1004.3
2018-07-03T10:39:42.948Z,1004.3
2018-07-03T10:40:45.049Z,1004.4
2018-07-03T10:41:46.448Z,1004.4
2018-07-03T10:42:47.838Z,1004.4
2018-07-03T10:43:49.233Z,1004.3
2018-07-03T10:44:50.632Z,1004.2
2018-07-03T10:45:52.029Z,1004.2
2018-07-03T10:46:53.414Z,1004.3
2018-07-03T10:47:54.813Z,1004.1
2018-07-03T10:48:56.229Z,1004.1
2018-07-03T10:49:57.619Z,1004.1
2018-07-03T10:50:59.006Z,1004.2
2018-07-03T10:52:00.409Z,1004.2
2018-07-03T10:53:01.791Z,1004.2
2018-07-03T10:54:03.192Z,1004.2
2018-07-03T10:55:04.653Z,1004.2
2018-07-03T10:56:06.076Z,1004.2
2018-07-03T10:57:07.665Z,1004.1
2018-07-03T10:58:09.062Z,1004.1
2018-07-03T10:59:10.448Z,1004.0
2018-07-03T11:00:11.875Z,1003.9
2018-07-03T11:01:13.257Z,1004.2
2018-07-03T11:02:14.657Z,1004.1
2018-07-03T11:03:16.045Z,1004.2
2018-07-03T11:04:17.425Z,1004.0
2018-07-03T11:05:18.823Z,1004.1
2018-07-03T11:06:20.253Z,1003.8
2018-07-03T11:07:21.635Z,1004.0
2018-07-03T11:08:23.030Z,1004.1
2018-07-03T11:09:24.431Z,1004.0
2018-07-03T11:10:25.833Z,1003.9
2018-07-03T11:11:27.236Z,1004.0
2018-07-03T11:12:28.628Z,1004.1
2018-07-03T11:13:30.016Z,1004.2
2018-07-03T11:14:31.409Z,1004.1
2018-07-03T11:15:32.804Z,1004.1
2018-07-03T11:16:34.256Z,1004.1
2018-07-03T11:17:35.610Z,1004.1
2018-07-03T11:18:37.015Z,1004.0
2018-07-03T11:19:38.433Z,1003.8
2018-07-03T11:20:39.794Z,1003.7
2018-07-03T11:21:41.190Z,1003.7
2018-07-03T11:22:42.585Z,1003.9
2018-07-03T11:23:44.000Z,1004.0
2018-07-03T11:24:45.400Z,1003.9
2018-07-03T11:25:46.796Z,1003.9
2018-07-03T11:26:48.199Z,1003.9
2018-07-03T11:27:49.583Z,1003.9
2018-07-03T11:28:50.985Z,1003.9
2018-07-03T11:29:52.370Z,1004.0
2018-07-03T11:30:53.764Z,1003.9
2018-07-03T11:31:55.166Z,1004.0
2018-07-03T11:32:56.550Z,1004.0
2018-07-03T11:33:57.954Z,1004.0
2018-07-03T11:34:59.339Z,1004.0
2018-07-03T11:36:00.749Z,1003.9
2018-07-03T11:37:02.135Z,1003.9
2018-07-03T11:38:03.537Z,1003.9
2018-07-03T11:39:04.925Z,1004.0
2018-07-03T11:40:06.320Z,1003.9
2018-07-03T11:41:07.714Z,1003.8
2018-07-03T11:42:09.119Z,1003.6
2018-07-03T11:43:10.553Z,1003.8
2018-07-03T11:44:11.900Z,1003.7
2018-07-03T11:45:13.290Z,1003.8
2018-07-03T11:46:14.679Z,1003.6
2018-07-03T11:47:16.070Z,1003.7
2018-07-03T11:48:17.483Z,1003.7
2018-07-03T11:49:18.864Z,1003.6
2018-07-03T11:50:20.293Z,1003.8
2018-07-03T11:51:21.664Z,1003.6
2018-07-03T11:52:23.069Z,1003.7
2018-07-03T11:53:24.470Z,1003.7
2018-07-03T11:54:25.865Z,1003.7
2018-07-03T11:55:27.274Z,1003.7
2018-07-03T11:56:28.734Z,1003.7
2018-07-03T11:57:30.153Z,1003.7
2018-07-03T11:58:31.598Z,1003.6
2018-07-03T11:59:33.006Z,1003.7
2018-07-03T12:00:34.413Z,1003.7
2018-07-03T12:01:35.846Z,1003.7
2018-07-03T12:02:37.269Z,1003.6
2018-07-03T12:03:38.664Z,1003.7
2018-07-03T12:04:40.084Z,1003.5
2018-07-03T12:05:41.492Z,1003.6
2018-07-03T12:06:42.871Z,1003.6
2018-07-03T12:07:44.305Z,1003.5
2018-07-03T12:08:45.701Z,1003.4
2018-07-03T12:09:47.109Z,1003.5
2018-07-03T12:10:48.516Z,1003.5
2018-07-03T12:11:49.907Z,1003.5
2018-07-03T12:12:51.298Z,1003.3
2018-07-03T12:13:52.704Z,1003.4
2018-07-03T12:14:54.095Z,1003.5
2018-07-03T12:15:55.501Z,1003.6
2018-07-03T12:16:56.890Z,1003.6
2018-07-03T12:17:58.285Z,1003.6
2018-07-03T12:18:59.674Z,1003.6
2018-07-03T12:20:01.066Z,1003.6
2018-07-03T12:21:02.466Z,1003.5
2018-07-03T12:22:03.861Z,1003.7
2018-07-03T12:23:05.255Z,1003.5
2018-07-03T12:24:06.650Z,1003.5
2018-07-03T12:25:08.055Z,1003.5
2018-07-03T12:26:09.474Z,1003.3
2018-07-03T12:27:10.880Z,1003.3
2018-07-03T12:28:12.267Z,1003.5
2018-07-03T12:29:13.719Z,1003.5
2018-07-03T12:30:15.090Z,1003.3
2018-07-03T12:31:16.530Z,1003.4
2018-07-03T12:32:17.921Z,1003.2
2018-07-03T12:33:19.313Z,1003.4
2018-07-03T12:34:20.710Z,1003.4
2018-07-03T12:35:22.100Z,1003.3
2018-07-03T12:36:23.520Z,1003.1
2018-07-03T12:37:24.925Z,1003.2
2018-07-03T12:38:26.327Z,1003.2
2018-07-03T12:39:27.736Z,1003.3
2018-07-03T12:40:29.120Z,1003.3
2018-07-03T12:41:30.520Z,1003.3
2018-07-03T12:42:31.921Z,1003.3
2018-07-03T12:43:33.324Z,1003.2
2018-07-03T12:44:34.720Z,1003.3
2018-07-03T12:45:36.120Z,1003.3